KCTJ

West Georgia Regional - O V Gray Field Airport

Carrollton, Georgia, USA
METAR KCTJ 180255Z AUTO 00000KT 4SM -DZ OVC006 07/07 A3020 RMK AO2 T00680065
Observed Flight Rules
Dec-18 @ 02:55 UTC (26 minutes ago) Instrument Flight Rules
Wind Visibility Clouds Conditions
Calm 4 miles
  • Overcast at 600' AGL
  • Light Drizzle
Temperatures Readings
Current 7°C / 45°F
Dewpoint 7°C / 45°F
Humidity 100%
Altimeter 30.2" Hg
Pressure 1023 hPa
Elevation 354
METAR KCTJ 180255Z AUTO 00000KT 4SM -DZ OVC006 07/07 A3020 RMK AO2 T00680065
Observed Flight Rules
Dec-18 @ 02:55 UTC
(26 minutes ago)
IFR
Wind Visibility
Calm 4 miles
Clouds
  • Overcast at 600' AGL
Conditions
  • Light Drizzle
Temperature Dewpoint
7°C / 45°F 7°C / 45°F
Humidity Altimeter Pressure
100% 30.2" Hg 1023 hPa